sensor_id;sensor_type;location;lat;lon;timestamp;temperature;humidity
14210;DHT22;7188;56.070;12.698;2023-07-29T00:01:00;13.00;1.00
14210;DHT22;7188;56.070;12.698;2023-07-29T00:03:26;13.00;1.00
14210;DHT22;7188;56.070;12.698;2023-07-29T00:05:52;12.90;99.90
14210;DHT22;7188;56.070;12.698;2023-07-29T00:08:18;12.80;99.90
14210;DHT22;7188;56.070;12.698;2023-07-29T00:10:43;12.80;99.90
14210;DHT22;7188;56.070;12.698;2023-07-29T00:13:09;12.70;99.90
14210;DHT22;7188;56.070;12.698;2023-07-29T00:15:35;12.70;99.90
14210;DHT22;7188;56.070;12.698;2023-07-29T00:18:00;12.70;99.90
14210;DHT22;7188;56.070;12.698;2023-07-29T00:20:26;12.70;99.90
14210;DHT22;7188;56.070;12.698;2023-07-29T00:22:52;12.70;99.90
14210;DHT22;7188;56.070;12.698;2023-07-29T00:25:21;12.60;99.90
14210;DHT22;7188;56.070;12.698;2023-07-29T00:27:47;12.70;1.00
14210;DHT22;7188;56.070;12.698;2023-07-29T00:30:13;12.80;8.20
14210;DHT22;7188;56.070;12.698;2023-07-29T00:32:38;12.80;1.00
14210;DHT22;7188;56.070;12.698;2023-07-29T00:35:04;12.70;1.00
14210;DHT22;7188;56.070;12.698;2023-07-29T00:37:30;12.70;68.60
14210;DHT22;7188;56.070;12.698;2023-07-29T00:39:57;12.70;99.90
14210;DHT22;7188;56.070;12.698;2023-07-29T00:42:23;12.70;99.90
14210;DHT22;7188;56.070;12.698;2023-07-29T00:44:49;12.70;99.90
14210;DHT22;7188;56.070;12.698;2023-07-29T00:47:15;12.60;99.90
14210;DHT22;7188;56.070;12.698;2023-07-29T00:49:45;12.60;99.90
14210;DHT22;7188;56.070;12.698;2023-07-29T00:52:11;12.50;99.90
14210;DHT22;7188;56.070;12.698;2023-07-29T00:54:41;12.50;99.90
14210;DHT22;7188;56.070;12.698;2023-07-29T00:57:08;12.60;99.90
14210;DHT22;7188;56.070;12.698;2023-07-29T00:59:35;12.60;99.90
14210;DHT22;7188;56.070;12.698;2023-07-29T01:02:02;12.60;99.90
14210;DHT22;7188;56.070;12.698;2023-07-29T01:04:28;12.60;99.90
14210;DHT22;7188;56.070;12.698;2023-07-29T01:07:03;12.50;99.90
14210;DHT22;7188;56.070;12.698;2023-07-29T01:12:12;12.40;99.90
14210;DHT22;7188;56.070;12.698;2023-07-29T01:14:55;12.40;99.90
14210;DHT22;7188;56.070;12.698;2023-07-29T01:17:28;12.40;99.90
14210;DHT22;7188;56.070;12.698;2023-07-29T01:20:02;12.50;99.90
14210;DHT22;7188;56.070;12.698;2023-07-29T01:22:32;12.60;99.90
14210;DHT22;7188;56.070;12.698;2023-07-29T01:24:59;12.70;99.90
14210;DHT22;7188;56.070;12.698;2023-07-29T01:27:25;12.70;99.90
14210;DHT22;7188;56.070;12.698;2023-07-29T01:29:52;12.70;99.90
14210;DHT22;7188;56.070;12.698;2023-07-29T01:32:24;12.80;99.90
14210;DHT22;7188;56.070;12.698;2023-07-29T01:37:25;13.00;99.90
14210;DHT22;7188;56.070;12.698;2023-07-29T01:39:55;13.00;99.90
14210;DHT22;7188;56.070;12.698;2023-07-29T01:42:22;12.90;99.90
14210;DHT22;7188;56.070;12.698;2023-07-29T01:44:48;12.80;99.90
14210;DHT22;7188;56.070;12.698;2023-07-29T01:47:13;12.70;99.90
14210;DHT22;7188;56.070;12.698;2023-07-29T01:49:39;12.60;99.90
14210;DHT22;7188;56.070;12.698;2023-07-29T01:52:14;12.50;99.90
14210;DHT22;7188;56.070;12.698;2023-07-29T01:54:40;12.40;99.90
14210;DHT22;7188;56.070;12.698;2023-07-29T01:57:05;12.40;99.90
14210;DHT22;7188;56.070;12.698;2023-07-29T01:59:31;12.40;99.90
14210;DHT22;7188;56.070;12.698;2023-07-29T02:01:56;12.40;99.90
14210;DHT22;7188;56.070;12.698;2023-07-29T02:04:22;12.50;99.90
14210;DHT22;7188;56.070;12.698;2023-07-29T02:06:48;12.50;99.90
14210;DHT22;7188;56.070;12.698;2023-07-29T02:09:13;12.50;99.90
14210;DHT22;7188;56.070;12.698;2023-07-29T02:11:39;12.60;99.90
14210;DHT22;7188;56.070;12.698;2023-07-29T02:14:05;12.70;99.90
14210;DHT22;7188;56.070;12.698;2023-07-29T02:16:30;12.60;99.90
14210;DHT22;7188;56.070;12.698;2023-07-29T02:18:58;12.60;99.90
14210;DHT22;7188;56.070;12.698;2023-07-29T02:21:23;12.60;99.90
14210;DHT22;7188;56.070;12.698;2023-07-29T02:23:49;12.70;99.90
14210;DHT22;7188;56.070;12.698;2023-07-29T02:26:15;12.60;99.90
14210;DHT22;7188;56.070;12.698;2023-07-29T02:28:41;12.50;99.90
14210;DHT22;7188;56.070;12.698;2023-07-29T02:31:13;12.40;99.90
14210;DHT22;7188;56.070;12.698;2023-07-29T02:33:39;12.40;99.90
14210;DHT22;7188;56.070;12.698;2023-07-29T02:36:05;12.50;99.90
14210;DHT22;7188;56.070;12.698;2023-07-29T02:38:31;12.50;99.90
14210;DHT22;7188;56.070;12.698;2023-07-29T02:40:56;12.60;99.90
14210;DHT22;7188;56.070;12.698;2023-07-29T02:43:22;12.70;99.90
14210;DHT22;7188;56.070;12.698;2023-07-29T02:45:47;12.80;99.90
14210;DHT22;7188;56.070;12.698;2023-07-29T02:48:13;12.80;99.90
14210;DHT22;7188;56.070;12.698;2023-07-29T02:50:39;12.70;99.90
14210;DHT22;7188;56.070;12.698;2023-07-29T02:53:04;12.80;99.90
14210;DHT22;7188;56.070;12.698;2023-07-29T02:55:30;12.70;99.90
14210;DHT22;7188;56.070;12.698;2023-07-29T02:57:56;12.70;99.90
14210;DHT22;7188;56.070;12.698;2023-07-29T03:00:22;12.60;99.90
14210;DHT22;7188;56.070;12.698;2023-07-29T03:02:47;12.60;99.90
14210;DHT22;7188;56.070;12.698;2023-07-29T03:05:13;12.60;99.90
14210;DHT22;7188;56.070;12.698;2023-07-29T03:07:38;12.50;99.90
14210;DHT22;7188;56.070;12.698;2023-07-29T03:10:04;12.60;99.90
14210;DHT22;7188;56.070;12.698;2023-07-29T03:12:31;12.60;62.50
14210;DHT22;7188;56.070;12.698;2023-07-29T03:14:56;12.60;1.00
14210;DHT22;7188;56.070;12.698;2023-07-29T03:17:22;12.60;1.00
14210;DHT22;7188;56.070;12.698;2023-07-29T03:19:47;12.70;35.20
14210;DHT22;7188;56.070;12.698;2023-07-29T03:22:13;12.80;99.90
14210;DHT22;7188;56.070;12.698;2023-07-29T03:24:39;12.90;95.60
14210;DHT22;7188;56.070;12.698;2023-07-29T03:27:05;13.00;99.90
14210;DHT22;7188;56.070;12.698;2023-07-29T03:29:30;13.10;99.90
14210;DHT22;7188;56.070;12.698;2023-07-29T03:31:56;13.10;1.00
14210;DHT22;7188;56.070;12.698;2023-07-29T03:34:22;13.20;1.00
14210;DHT22;7188;56.070;12.698;2023-07-29T03:36:47;13.20;96.00
14210;DHT22;7188;56.070;12.698;2023-07-29T03:39:14;13.20;1.00
14210;DHT22;7188;56.070;12.698;2023-07-29T03:41:39;13.30;1.00
14210;DHT22;7188;56.070;12.698;2023-07-29T03:44:05;13.40;1.00
14210;DHT22;7188;56.070;12.698;2023-07-29T03:46:31;13.50;1.00
14210;DHT22;7188;56.070;12.698;2023-07-29T03:48:57;13.50;99.90
14210;DHT22;7188;56.070;12.698;2023-07-29T03:51:22;13.50;19.40
14210;DHT22;7188;56.070;12.698;2023-07-29T03:53:50;13.60;1.00
14210;DHT22;7188;56.070;12.698;2023-07-29T03:56:15;13.70;99.90
14210;DHT22;7188;56.070;12.698;2023-07-29T03:58:41;13.80;1.00
14210;DHT22;7188;56.070;12.698;2023-07-29T04:01:07;13.90;1.00
14210;DHT22;7188;56.070;12.698;2023-07-29T04:04:03;13.90;1.00
14210;DHT22;7188;56.070;12.698;2023-07-29T04:06:29;14.00;99.90
14210;DHT22;7188;56.070;12.698;2023-07-29T04:08:54;14.00;1.00
14210;DHT22;7188;56.070;12.698;2023-07-29T04:11:20;14.10;1.00
14210;DHT22;7188;56.070;12.698;2023-07-29T04:13:46;14.20;1.00
14210;DHT22;7188;56.070;12.698;2023-07-29T04:16:12;14.30;99.90
14210;DHT22;7188;56.070;12.698;2023-07-29T04:18:38;14.30;99.90
14210;DHT22;7188;56.070;12.698;2023-07-29T04:21:04;14.40;99.90
14210;DHT22;7188;56.070;12.698;2023-07-29T04:23:29;14.50;99.90
14210;DHT22;7188;56.070;12.698;2023-07-29T04:25:55;14.50;97.30
14210;DHT22;7188;56.070;12.698;2023-07-29T04:28:20;14.60;1.00
14210;DHT22;7188;56.070;12.698;2023-07-29T04:30:46;14.70;1.00
14210;DHT22;7188;56.070;12.698;2023-07-29T04:33:12;14.70;1.00
14210;DHT22;7188;56.070;12.698;2023-07-29T04:35:38;14.80;1.00
14210;DHT22;7188;56.070;12.698;2023-07-29T04:38:05;14.80;1.00
14210;DHT22;7188;56.070;12.698;2023-07-29T04:40:33;14.90;99.90
14210;DHT22;7188;56.070;12.698;2023-07-29T04:43:00;14.90;99.90
14210;DHT22;7188;56.070;12.698;2023-07-29T04:45:30;15.00;99.90
14210;DHT22;7188;56.070;12.698;2023-07-29T04:47:56;15.10;99.90
14210;DHT22;7188;56.070;12.698;2023-07-29T04:50:22;15.10;99.90
14210;DHT22;7188;56.070;12.698;2023-07-29T04:52:47;15.10;99.90
14210;DHT22;7188;56.070;12.698;2023-07-29T04:55:13;15.20;99.90
14210;DHT22;7188;56.070;12.698;2023-07-29T04:57:39;15.20;99.90
14210;DHT22;7188;56.070;12.698;2023-07-29T05:00:05;15.30;99.90
14210;DHT22;7188;56.070;12.698;2023-07-29T05:02:31;15.40;99.90
14210;DHT22;7188;56.070;12.698;2023-07-29T05:04:57;15.50;99.90
14210;DHT22;7188;56.070;12.698;2023-07-29T05:07:22;15.60;99.90
14210;DHT22;7188;56.070;12.698;2023-07-29T05:09:48;15.90;99.90
14210;DHT22;7188;56.070;12.698;2023-07-29T05:12:14;16.10;99.90
14210;DHT22;7188;56.070;12.698;2023-07-29T05:14:39;16.20;99.90
14210;DHT22;7188;56.070;12.698;2023-07-29T05:17:05;16.40;99.90
14210;DHT22;7188;56.070;12.698;2023-07-29T05:19:31;16.50;99.90
14210;DHT22;7188;56.070;12.698;2023-07-29T05:21:57;16.50;99.90
14210;DHT22;7188;56.070;12.698;2023-07-29T05:24:23;16.50;99.90
14210;DHT22;7188;56.070;12.698;2023-07-29T05:26:49;16.50;1.00
14210;DHT22;7188;56.070;12.698;2023-07-29T05:29:15;16.60;1.00
14210;DHT22;7188;56.070;12.698;2023-07-29T05:31:41;16.60;1.00
14210;DHT22;7188;56.070;12.698;2023-07-29T05:34:06;16.70;99.90
14210;DHT22;7188;56.070;12.698;2023-07-29T05:36:32;16.80;99.90
14210;DHT22;7188;56.070;12.698;2023-07-29T05:38:58;16.90;99.90
14210;DHT22;7188;56.070;12.698;2023-07-29T05:41:24;17.00;99.90
14210;DHT22;7188;56.070;12.698;2023-07-29T05:43:51;17.10;99.90
14210;DHT22;7188;56.070;12.698;2023-07-29T05:46:17;17.20;99.90
14210;DHT22;7188;56.070;12.698;2023-07-29T05:48:42;17.30;99.90
14210;DHT22;7188;56.070;12.698;2023-07-29T05:51:08;17.30;1.00
14210;DHT22;7188;56.070;12.698;2023-07-29T05:53:34;17.40;1.00
14210;DHT22;7188;56.070;12.698;2023-07-29T05:55:59;17.50;1.00
14210;DHT22;7188;56.070;12.698;2023-07-29T05:58:25;17.50;1.00
14210;DHT22;7188;56.070;12.698;2023-07-29T06:00:51;17.60;99.90
14210;DHT22;7188;56.070;12.698;2023-07-29T06:03:16;17.60;99.90
14210;DHT22;7188;56.070;12.698;2023-07-29T06:05:42;17.60;99.90
14210;DHT22;7188;56.070;12.698;2023-07-29T06:08:23;17.60;99.90
14210;DHT22;7188;56.070;12.698;2023-07-29T06:10:49;17.60;99.90
14210;DHT22;7188;56.070;12.698;2023-07-29T06:13:14;17.60;99.90
14210;DHT22;7188;56.070;12.698;2023-07-29T06:15:40;17.60;99.90
14210;DHT22;7188;56.070;12.698;2023-07-29T06:18:06;17.60;99.90
14210;DHT22;7188;56.070;12.698;2023-07-29T06:20:31;17.80;99.90
14210;DHT22;7188;56.070;12.698;2023-07-29T06:22:57;17.90;99.90
14210;DHT22;7188;56.070;12.698;2023-07-29T06:25:22;18.00;99.90
14210;DHT22;7188;56.070;12.698;2023-07-29T06:27:48;18.10;1.00
14210;DHT22;7188;56.070;12.698;2023-07-29T06:30:14;18.20;1.00
14210;DHT22;7188;56.070;12.698;2023-07-29T06:32:39;18.40;90.30
14210;DHT22;7188;56.070;12.698;2023-07-29T06:35:05;18.50;1.00
14210;DHT22;7188;56.070;12.698;2023-07-29T06:37:31;18.60;1.00
14210;DHT22;7188;56.070;12.698;2023-07-29T06:39:58;18.80;1.00
14210;DHT22;7188;56.070;12.698;2023-07-29T06:42:24;19.00;1.00
14210;DHT22;7188;56.070;12.698;2023-07-29T06:44:49;19.10;1.00
14210;DHT22;7188;56.070;12.698;2023-07-29T06:47:15;19.20;1.00
14210;DHT22;7188;56.070;12.698;2023-07-29T06:49:41;19.50;99.90
14210;DHT22;7188;56.070;12.698;2023-07-29T06:52:07;19.70;99.90
14210;DHT22;7188;56.070;12.698;2023-07-29T06:54:32;19.80;99.90
14210;DHT22;7188;56.070;12.698;2023-07-29T06:56:58;20.00;99.90
14210;DHT22;7188;56.070;12.698;2023-07-29T06:59:24;20.10;6.00
14210;DHT22;7188;56.070;12.698;2023-07-29T07:01:51;20.20;1.00
14210;DHT22;7188;56.070;12.698;2023-07-29T07:04:16;20.40;1.00
14210;DHT22;7188;56.070;12.698;2023-07-29T07:06:42;20.50;1.00
14210;DHT22;7188;56.070;12.698;2023-07-29T07:09:08;20.60;1.00
14210;DHT22;7188;56.070;12.698;2023-07-29T07:11:34;20.60;1.00
14210;DHT22;7188;56.070;12.698;2023-07-29T07:13:59;20.60;1.00
14210;DHT22;7188;56.070;12.698;2023-07-29T07:16:25;20.60;1.00
14210;DHT22;7188;56.070;12.698;2023-07-29T07:18:51;20.80;1.00
14210;DHT22;7188;56.070;12.698;2023-07-29T07:21:17;20.90;99.90
14210;DHT22;7188;56.070;12.698;2023-07-29T07:23:43;21.00;99.90
14210;DHT22;7188;56.070;12.698;2023-07-29T07:26:08;21.20;99.90
14210;DHT22;7188;56.070;12.698;2023-07-29T07:28:34;21.30;99.90
14210;DHT22;7188;56.070;12.698;2023-07-29T07:31:00;21.40;99.90
14210;DHT22;7188;56.070;12.698;2023-07-29T07:33:25;21.40;98.00
14210;DHT22;7188;56.070;12.698;2023-07-29T07:35:51;21.40;99.90
14210;DHT22;7188;56.070;12.698;2023-07-29T07:38:16;21.40;19.20
14210;DHT22;7188;56.070;12.698;2023-07-29T07:40:43;21.40;8.00
14210;DHT22;7188;56.070;12.698;2023-07-29T07:43:17;21.40;1.00
14210;DHT22;7188;56.070;12.698;2023-07-29T07:45:42;21.40;1.00
14210;DHT22;7188;56.070;12.698;2023-07-29T07:48:08;21.30;1.00
14210;DHT22;7188;56.070;12.698;2023-07-29T07:50:35;21.10;1.00
14210;DHT22;7188;56.070;12.698;2023-07-29T07:53:01;21.00;99.90
14210;DHT22;7188;56.070;12.698;2023-07-29T07:55:26;21.00;99.90
14210;DHT22;7188;56.070;12.698;2023-07-29T07:57:52;21.10;99.90
14210;DHT22;7188;56.070;12.698;2023-07-29T08:00:18;21.20;99.90
14210;DHT22;7188;56.070;12.698;2023-07-29T08:02:45;21.40;99.90
14210;DHT22;7188;56.070;12.698;2023-07-29T08:05:10;21.60;99.90
14210;DHT22;7188;56.070;12.698;2023-07-29T08:07:36;21.70;99.90
14210;DHT22;7188;56.070;12.698;2023-07-29T08:10:02;21.90;99.90
14210;DHT22;7188;56.070;12.698;2023-07-29T08:12:27;21.90;99.90
14210;DHT22;7188;56.070;12.698;2023-07-29T08:14:53;21.80;99.90
14210;DHT22;7188;56.070;12.698;2023-07-29T08:17:19;21.70;99.90
14210;DHT22;7188;56.070;12.698;2023-07-29T08:19:44;21.60;99.90
14210;DHT22;7188;56.070;12.698;2023-07-29T08:22:10;21.60;99.90
14210;DHT22;7188;56.070;12.698;2023-07-29T08:24:35;21.60;99.90
14210;DHT22;7188;56.070;12.698;2023-07-29T08:27:01;21.50;99.90
14210;DHT22;7188;56.070;12.698;2023-07-29T08:29:27;21.40;99.90
14210;DHT22;7188;56.070;12.698;2023-07-29T08:31:52;21.50;1.00
14210;DHT22;7188;56.070;12.698;2023-07-29T08:34:18;21.70;1.00
14210;DHT22;7188;56.070;12.698;2023-07-29T08:36:44;21.80;99.90
14210;DHT22;7188;56.070;12.698;2023-07-29T08:39:09;21.80;99.90
14210;DHT22;7188;56.070;12.698;2023-07-29T08:41:45;21.80;99.90
14210;DHT22;7188;56.070;12.698;2023-07-29T08:44:35;21.70;99.90
14210;DHT22;7188;56.070;12.698;2023-07-29T08:47:02;21.70;1.00
14210;DHT22;7188;56.070;12.698;2023-07-29T08:49:28;21.80;1.00
14210;DHT22;7188;56.070;12.698;2023-07-29T08:51:57;21.90;1.00
14210;DHT22;7188;56.070;12.698;2023-07-29T08:54:23;22.20;1.00
14210;DHT22;7188;56.070;12.698;2023-07-29T08:56:50;22.40;99.90
14210;DHT22;7188;56.070;12.698;2023-07-29T08:59:16;22.40;99.90
14210;DHT22;7188;56.070;12.698;2023-07-29T09:01:45;22.30;99.90
14210;DHT22;7188;56.070;12.698;2023-07-29T09:04:12;22.20;99.90
14210;DHT22;7188;56.070;12.698;2023-07-29T09:06:39;22.30;99.90
14210;DHT22;7188;56.070;12.698;2023-07-29T09:09:07;22.30;99.90
14210;DHT22;7188;56.070;12.698;2023-07-29T09:11:34;22.30;99.90
14210;DHT22;7188;56.070;12.698;2023-07-29T09:13:59;22.20;99.90
14210;DHT22;7188;56.070;12.698;2023-07-29T09:16:25;22.20;99.90
14210;DHT22;7188;56.070;12.698;2023-07-29T09:18:51;22.20;99.90
14210;DHT22;7188;56.070;12.698;2023-07-29T09:21:22;22.30;99.90
14210;DHT22;7188;56.070;12.698;2023-07-29T09:23:50;22.20;99.90
14210;DHT22;7188;56.070;12.698;2023-07-29T09:26:22;22.30;99.90
14210;DHT22;7188;56.070;12.698;2023-07-29T09:29:00;22.20;99.90
14210;DHT22;7188;56.070;12.698;2023-07-29T09:31:27;22.20;99.90
14210;DHT22;7188;56.070;12.698;2023-07-29T09:33:57;22.20;99.90
14210;DHT22;7188;56.070;12.698;2023-07-29T09:36:23;22.10;99.90
14210;DHT22;7188;56.070;12.698;2023-07-29T09:38:55;22.20;99.90
14210;DHT22;7188;56.070;12.698;2023-07-29T09:41:26;22.30;99.90
14210;DHT22;7188;56.070;12.698;2023-07-29T09:44:00;22.30;99.90
14210;DHT22;7188;56.070;12.698;2023-07-29T09:46:33;22.40;99.90
14210;DHT22;7188;56.070;12.698;2023-07-29T09:48:59;22.50;99.90
14210;DHT22;7188;56.070;12.698;2023-07-29T09:51:24;22.70;99.90
14210;DHT22;7188;56.070;12.698;2023-07-29T09:53:51;22.70;99.90
14210;DHT22;7188;56.070;12.698;2023-07-29T09:56:26;22.80;99.90
14210;DHT22;7188;56.070;12.698;2023-07-29T09:58:57;22.80;99.90
14210;DHT22;7188;56.070;12.698;2023-07-29T10:01:23;22.70;99.90
14210;DHT22;7188;56.070;12.698;2023-07-29T10:03:50;22.60;99.90
14210;DHT22;7188;56.070;12.698;2023-07-29T10:06:16;22.60;99.90
14210;DHT22;7188;56.070;12.698;2023-07-29T10:08:43;22.60;99.90
14210;DHT22;7188;56.070;12.698;2023-07-29T10:11:10;22.50;99.90
14210;DHT22;7188;56.070;12.698;2023-07-29T10:13:37;22.40;99.90
14210;DHT22;7188;56.070;12.698;2023-07-29T10:16:03;22.40;99.90
14210;DHT22;7188;56.070;12.698;2023-07-29T10:18:33;22.40;1.00
14210;DHT22;7188;56.070;12.698;2023-07-29T10:21:00;22.30;1.00
14210;DHT22;7188;56.070;12.698;2023-07-29T10:23:27;22.30;1.00
14210;DHT22;7188;56.070;12.698;2023-07-29T10:26:04;22.20;1.00
14210;DHT22;7188;56.070;12.698;2023-07-29T10:28:31;22.20;1.00
14210;DHT22;7188;56.070;12.698;2023-07-29T10:30:58;22.10;1.00
14210;DHT22;7188;56.070;12.698;2023-07-29T10:33:25;22.10;43.50
14210;DHT22;7188;56.070;12.698;2023-07-29T10:35:51;22.10;99.90
14210;DHT22;7188;56.070;12.698;2023-07-29T10:38:18;22.10;99.90
14210;DHT22;7188;56.070;12.698;2023-07-29T10:40:55;22.20;99.90
14210;DHT22;7188;56.070;12.698;2023-07-29T10:43:27;22.20;99.90
14210;DHT22;7188;56.070;12.698;2023-07-29T10:45:55;22.30;99.90
14210;DHT22;7188;56.070;12.698;2023-07-29T10:51:22;22.40;99.90
14210;DHT22;7188;56.070;12.698;2023-07-29T10:53:47;22.50;99.90
14210;DHT22;7188;56.070;12.698;2023-07-29T10:56:13;22.50;99.90
14210;DHT22;7188;56.070;12.698;2023-07-29T10:58:49;22.60;99.90
14210;DHT22;7188;56.070;12.698;2023-07-29T11:01:29;22.70;99.90
14210;DHT22;7188;56.070;12.698;2023-07-29T11:12:36;23.00;1.00
14210;DHT22;7188;56.070;12.698;2023-07-29T11:15:25;23.00;1.00
14210;DHT22;7188;56.070;12.698;2023-07-29T11:17:57;23.10;1.00
14210;DHT22;7188;56.070;12.698;2023-07-29T11:20:33;23.30;1.00
14210;DHT22;7188;56.070;12.698;2023-07-29T11:23:01;23.40;1.00
14210;DHT22;7188;56.070;12.698;2023-07-29T11:25:28;23.60;1.00
14210;DHT22;7188;56.070;12.698;2023-07-29T11:27:55;23.60;1.00
14210;DHT22;7188;56.070;12.698;2023-07-29T11:30:21;23.70;99.90
14210;DHT22;7188;56.070;12.698;2023-07-29T11:32:48;23.80;99.90
14210;DHT22;7188;56.070;12.698;2023-07-29T11:35:16;23.90;99.90
14210;DHT22;7188;56.070;12.698;2023-07-29T11:37:44;23.80;99.90
14210;DHT22;7188;56.070;12.698;2023-07-29T11:40:17;23.80;99.90
14210;DHT22;7188;56.070;12.698;2023-07-29T11:42:43;23.90;99.90
14210;DHT22;7188;56.070;12.698;2023-07-29T11:45:09;23.80;99.90
14210;DHT22;7188;56.070;12.698;2023-07-29T11:47:36;23.80;99.90
14210;DHT22;7188;56.070;12.698;2023-07-29T11:50:10;23.70;99.90
14210;DHT22;7188;56.070;12.698;2023-07-29T11:52:37;23.60;99.90
14210;DHT22;7188;56.070;12.698;2023-07-29T11:55:04;23.60;99.90
14210;DHT22;7188;56.070;12.698;2023-07-29T11:57:31;23.50;99.90
14210;DHT22;7188;56.070;12.698;2023-07-29T11:59:57;23.40;99.90
14210;DHT22;7188;56.070;12.698;2023-07-29T12:02:24;23.30;99.90
14210;DHT22;7188;56.070;12.698;2023-07-29T12:04:51;23.20;99.90
14210;DHT22;7188;56.070;12.698;2023-07-29T12:07:18;23.30;99.90
14210;DHT22;7188;56.070;12.698;2023-07-29T12:09:45;23.40;99.90
14210;DHT22;7188;56.070;12.698;2023-07-29T12:12:11;23.40;99.90
14210;DHT22;7188;56.070;12.698;2023-07-29T12:14:37;23.50;99.90
14210;DHT22;7188;56.070;12.698;2023-07-29T12:17:05;23.50;99.90
14210;DHT22;7188;56.070;12.698;2023-07-29T12:19:32;23.60;99.90
14210;DHT22;7188;56.070;12.698;2023-07-29T12:21:59;23.70;99.90
14210;DHT22;7188;56.070;12.698;2023-07-29T12:24:25;23.70;90.90
14210;DHT22;7188;56.070;12.698;2023-07-29T12:27:13;23.70;99.40
14210;DHT22;7188;56.070;12.698;2023-07-29T12:29:43;23.80;91.20
14210;DHT22;7188;56.070;12.698;2023-07-29T12:32:09;23.70;1.00
14210;DHT22;7188;56.070;12.698;2023-07-29T12:34:36;23.80;1.00
14210;DHT22;7188;56.070;12.698;2023-07-29T12:37:03;23.80;1.00
14210;DHT22;7188;56.070;12.698;2023-07-29T12:39:32;23.90;1.00
14210;DHT22;7188;56.070;12.698;2023-07-29T12:41:59;23.90;1.00
14210;DHT22;7188;56.070;12.698;2023-07-29T12:44:29;24.10;1.00
14210;DHT22;7188;56.070;12.698;2023-07-29T12:46:55;24.20;1.00
14210;DHT22;7188;56.070;12.698;2023-07-29T12:49:21;24.20;1.00
14210;DHT22;7188;56.070;12.698;2023-07-29T12:51:48;24.20;1.00
14210;DHT22;7188;56.070;12.698;2023-07-29T12:54:13;24.10;1.00
14210;DHT22;7188;56.070;12.698;2023-07-29T12:56:39;24.00;1.00
14210;DHT22;7188;56.070;12.698;2023-07-29T12:59:05;24.00;1.00
14210;DHT22;7188;56.070;12.698;2023-07-29T13:01:31;24.00;1.00
14210;DHT22;7188;56.070;12.698;2023-07-29T13:03:56;24.20;1.00
14210;DHT22;7188;56.070;12.698;2023-07-29T13:06:22;24.50;1.00
14210;DHT22;7188;56.070;12.698;2023-07-29T13:08:48;24.70;1.00
14210;DHT22;7188;56.070;12.698;2023-07-29T13:11:15;24.80;1.00
14210;DHT22;7188;56.070;12.698;2023-07-29T13:13:41;25.00;1.00
14210;DHT22;7188;56.070;12.698;2023-07-29T13:16:06;25.10;1.00
14210;DHT22;7188;56.070;12.698;2023-07-29T13:18:33;25.10;99.90
14210;DHT22;7188;56.070;12.698;2023-07-29T13:20:59;25.00;99.90
14210;DHT22;7188;56.070;12.698;2023-07-29T13:23:25;24.80;1.00
14210;DHT22;7188;56.070;12.698;2023-07-29T13:25:52;24.80;1.00
14210;DHT22;7188;56.070;12.698;2023-07-29T13:28:17;24.70;1.00
14210;DHT22;7188;56.070;12.698;2023-07-29T13:30:44;24.50;1.00
14210;DHT22;7188;56.070;12.698;2023-07-29T13:33:19;24.40;1.00
14210;DHT22;7188;56.070;12.698;2023-07-29T13:35:44;24.50;1.00
14210;DHT22;7188;56.070;12.698;2023-07-29T13:38:10;24.50;1.00
14210;DHT22;7188;56.070;12.698;2023-07-29T13:40:36;24.50;1.00
14210;DHT22;7188;56.070;12.698;2023-07-29T13:43:02;24.50;1.00
14210;DHT22;7188;56.070;12.698;2023-07-29T13:45:27;24.30;1.00
14210;DHT22;7188;56.070;12.698;2023-07-29T13:47:53;24.30;1.00
14210;DHT22;7188;56.070;12.698;2023-07-29T13:50:19;24.40;1.00
14210;DHT22;7188;56.070;12.698;2023-07-29T13:52:44;24.50;1.00
14210;DHT22;7188;56.070;12.698;2023-07-29T13:55:10;24.20;1.00
14210;DHT22;7188;56.070;12.698;2023-07-29T13:57:37;24.10;1.00
14210;DHT22;7188;56.070;12.698;2023-07-29T14:00:04;24.00;1.00
14210;DHT22;7188;56.070;12.698;2023-07-29T14:02:30;23.90;1.00
14210;DHT22;7188;56.070;12.698;2023-07-29T14:04:56;23.80;1.00
14210;DHT22;7188;56.070;12.698;2023-07-29T14:07:22;23.80;1.00
14210;DHT22;7188;56.070;12.698;2023-07-29T14:09:48;24.10;1.00
14210;DHT22;7188;56.070;12.698;2023-07-29T14:12:13;24.40;1.00
14210;DHT22;7188;56.070;12.698;2023-07-29T14:14:41;24.60;99.90
14210;DHT22;7188;56.070;12.698;2023-07-29T14:17:07;24.50;99.90
14210;DHT22;7188;56.070;12.698;2023-07-29T14:19:34;24.40;99.90
14210;DHT22;7188;56.070;12.698;2023-07-29T14:21:59;24.30;99.90
14210;DHT22;7188;56.070;12.698;2023-07-29T14:24:25;24.20;99.90
14210;DHT22;7188;56.070;12.698;2023-07-29T14:26:51;24.10;99.90
14210;DHT22;7188;56.070;12.698;2023-07-29T14:29:16;24.00;99.90
14210;DHT22;7188;56.070;12.698;2023-07-29T14:31:42;24.00;99.90
14210;DHT22;7188;56.070;12.698;2023-07-29T14:34:07;24.10;99.90
14210;DHT22;7188;56.070;12.698;2023-07-29T14:36:33;24.10;99.90
14210;DHT22;7188;56.070;12.698;2023-07-29T14:39:14;24.00;99.90
14210;DHT22;7188;56.070;12.698;2023-07-29T14:41:40;23.90;99.90
14210;DHT22;7188;56.070;12.698;2023-07-29T14:44:05;23.90;99.90
14210;DHT22;7188;56.070;12.698;2023-07-29T14:46:31;23.80;99.90
14210;DHT22;7188;56.070;12.698;2023-07-29T14:48:57;23.60;99.90
14210;DHT22;7188;56.070;12.698;2023-07-29T14:51:46;23.60;99.90
14210;DHT22;7188;56.070;12.698;2023-07-29T14:54:12;23.60;99.90
14210;DHT22;7188;56.070;12.698;2023-07-29T14:56:38;23.60;99.90
14210;DHT22;7188;56.070;12.698;2023-07-29T14:59:22;23.50;99.90
14210;DHT22;7188;56.070;12.698;2023-07-29T15:01:47;23.30;99.90
14210;DHT22;7188;56.070;12.698;2023-07-29T15:04:13;23.20;99.90
14210;DHT22;7188;56.070;12.698;2023-07-29T15:06:39;23.20;99.90
14210;DHT22;7188;56.070;12.698;2023-07-29T15:09:05;23.10;1.00
14210;DHT22;7188;56.070;12.698;2023-07-29T15:11:31;23.00;1.00
14210;DHT22;7188;56.070;12.698;2023-07-29T15:14:00;22.90;1.00
14210;DHT22;7188;56.070;12.698;2023-07-29T15:16:26;22.90;1.00
14210;DHT22;7188;56.070;12.698;2023-07-29T15:18:52;22.60;1.00
14210;DHT22;7188;56.070;12.698;2023-07-29T15:21:17;22.40;1.00
14210;DHT22;7188;56.070;12.698;2023-07-29T15:23:43;22.20;1.00
14210;DHT22;7188;56.070;12.698;2023-07-29T15:26:09;22.00;99.90
14210;DHT22;7188;56.070;12.698;2023-07-29T15:28:35;21.80;1.00
14210;DHT22;7188;56.070;12.698;2023-07-29T15:31:01;21.60;1.00
14210;DHT22;7188;56.070;12.698;2023-07-29T15:33:27;21.40;1.00
14210;DHT22;7188;56.070;12.698;2023-07-29T15:35:55;21.20;99.90
14210;DHT22;7188;56.070;12.698;2023-07-29T15:38:21;21.20;1.00
14210;DHT22;7188;56.070;12.698;2023-07-29T15:40:47;21.10;1.00
14210;DHT22;7188;56.070;12.698;2023-07-29T15:43:14;21.10;99.90
14210;DHT22;7188;56.070;12.698;2023-07-29T15:45:40;21.00;99.90
14210;DHT22;7188;56.070;12.698;2023-07-29T15:48:05;21.00;1.00
14210;DHT22;7188;56.070;12.698;2023-07-29T15:50:31;20.80;99.90